Time;durP1;ratioP1;P1;durP2;ratioP2;P2;SDS_P1;SDS_P2;PMS_P1;PMS_P2;Temp;Humidity;BMP_temperature;BMP_pressure;BME280_temperature;BME280_humidity;BME280_pressure;Samples;Min_cycle;Max_cycle;Signal;HPM_P1;HPM_P2
2023/10/09 00:01:26;;;;;;;16.50;3.77;;;13.40;99.90;;;;;;5010535;28;20476;-62
2023/10/09 00:03:55;;;;;;;11.63;2.87;;;13.50;99.90;;;;;;5009428;28;20580;-62
2023/10/09 00:06:36;;;;;;;15.80;2.63;;;13.40;99.90;;;;;;5006313;28;20460;-62
2023/10/09 00:09:30;;;;;;;11.20;3.13;;;13.40;99.90;;;;;;5007529;28;21259;-62
2023/10/09 00:11:57;;;;;;;11.73;2.97;;;13.40;99.90;;;;;;5009241;28;20430;-62
2023/10/09 00:14:24;;;;;;;13.90;3.47;;;13.50;99.90;;;;;;5007189;28;20472;-62
2023/10/09 00:16:56;;;;;;;20.37;2.87;;;13.60;99.90;;;;;;5009244;28;20548;-62
2023/10/09 00:19:30;;;;;;;16.33;3.07;;;13.70;99.90;;;;;;5007214;28;20593;-62
2023/10/09 00:21:58;;;;;;;19.87;3.83;;;13.80;99.90;;;;;;5011004;28;20712;-62
2023/10/09 00:24:24;;;;;;;20.73;3.03;;;13.70;99.90;;;;;;5006800;28;21005;-62
2023/10/09 00:26:51;;;;;;;19.50;3.40;;;13.80;99.90;;;;;;5009159;28;20493;-63
2023/10/09 00:29:32;;;;;;;9.20;2.50;;;13.80;99.90;;;;;;5007747;28;20322;-62
2023/10/09 00:32:13;;;;;;;19.30;4.10;;;13.80;99.90;;;;;;5008956;28;20418;-62
2023/10/09 00:34:39;;;;;;;39.17;3.47;;;13.80;99.90;;;;;;5005462;28;20486;-62
2023/10/09 00:37:22;;;;;;;15.03;3.97;;;13.90;99.90;;;;;;5010230;28;20437;-62
2023/10/09 00:39:55;;;;;;;11.83;3.37;;;13.90;99.90;;;;;;5006641;28;20585;-62
2023/10/09 00:42:29;;;;;;;5.73;2.60;;;13.90;99.90;;;;;;5010266;28;20560;-62
2023/10/09 00:44:56;;;;;;;23.17;4.27;;;14.00;99.90;;;;;;5007134;28;20520;-62
2023/10/09 00:47:26;;;;;;;7.53;3.43;;;14.00;99.70;;;;;;5010161;28;20817;-62
2023/10/09 00:50:35;;;;;;;11.90;3.50;;;14.10;99.60;;;;;;5007744;28;20425;-62
2023/10/09 00:52:49;;;;;;;6.83;2.63;;;14.20;99.10;;;;;;5010174;28;20914;-62
2023/10/09 00:55:27;;;;;;;16.43;3.07;;;14.20;99.40;;;;;;5007933;28;20565;-62
2023/10/09 00:57:59;;;;;;;20.20;2.70;;;14.20;99.30;;;;;;5010128;28;20406;-62
2023/10/09 01:03:19;;;;;;;5.80;2.40;;;13.90;99.80;;;;;;5009742;28;20500;-62
2023/10/09 01:06:03;;;;;;;15.80;2.90;;;13.80;99.90;;;;;;5005591;28;20430;-62
2023/10/09 01:08:30;;;;;;;13.53;2.80;;;13.70;99.90;;;;;;5006149;28;20422;-62
2023/10/09 01:10:58;;;;;;;19.87;3.40;;;13.70;99.90;;;;;;5005900;28;20425;-62
2023/10/09 01:16:28;;;;;;;10.43;2.80;;;13.50;99.90;;;;;;5006877;28;20434;-62
2023/10/09 01:18:59;;;;;;;16.23;3.40;;;13.40;99.90;;;;;;5009787;28;20462;-62
2023/10/09 01:21:26;;;;;;;9.77;3.30;;;13.30;99.90;;;;;;5007501;28;20449;-62
2023/10/09 01:24:08;;;;;;;13.90;3.10;;;13.30;99.90;;;;;;5008763;28;20426;-62
2023/10/09 01:26:47;;;;;;;16.10;2.83;;;13.30;99.90;;;;;;5009360;28;20466;-62
2023/10/09 01:29:17;;;;;;;9.63;3.60;;;13.40;99.90;;;;;;5008097;28;20928;-62
2023/10/09 01:31:56;;;;;;;13.13;3.07;;;13.40;99.90;;;;;;5007638;28;20546;-62
2023/10/09 01:34:24;;;;;;;7.50;2.10;;;13.30;99.90;;;;;;5006656;28;20461;-62
2023/10/09 01:36:59;;;;;;;10.73;2.97;;;13.40;99.90;;;;;;5008720;28;20480;-62
2023/10/09 01:39:27;;;;;;;13.80;3.07;;;13.40;99.90;;;;;;5007445;28;20457;-62
2023/10/09 01:42:05;;;;;;;3.63;2.50;;;13.40;99.90;;;;;;5008927;28;20418;-62
2023/10/09 01:44:35;;;;;;;17.87;4.30;;;13.40;99.90;;;;;;5008345;28;20430;-62
2023/10/09 01:47:09;;;;;;;15.30;3.13;;;13.50;99.90;;;;;;5008400;28;20417;-62
2023/10/09 01:49:41;;;;;;;7.77;2.93;;;13.70;99.90;;;;;;5007797;28;20441;-62
2023/10/09 01:52:12;;;;;;;14.00;3.10;;;13.70;99.90;;;;;;5011682;28;20422;-62
2023/10/09 01:54:39;;;;;;;11.40;2.50;;;13.80;99.80;;;;;;5011164;28;20915;-62
2023/10/09 01:57:09;;;;;;;6.17;2.20;;;13.90;99.90;;;;;;5013091;28;20429;-62
2023/10/09 01:59:38;;;;;;;5.10;1.83;;;14.00;99.20;;;;;;5008719;28;20803;-62
2023/10/09 02:02:24;;;;;;;10.73;2.80;;;14.10;99.00;;;;;;5012802;28;20418;-62
2023/10/09 02:04:50;;;;;;;15.50;3.63;;;14.10;99.00;;;;;;5009338;28;20887;-62
2023/10/09 02:07:22;;;;;;;11.50;2.70;;;14.20;99.00;;;;;;5012842;28;20418;-62
2023/10/09 02:09:47;;;;;;;6.13;2.60;;;14.20;99.40;;;;;;5010058;28;20200;-62
2023/10/09 02:12:13;;;;;;;6.77;2.03;;;14.10;99.50;;;;;;5012704;28;20941;-62
2023/10/09 02:14:41;;;;;;;15.30;2.23;;;14.00;99.30;;;;;;5008948;28;20289;-62
2023/10/09 02:17:29;;;;;;;11.67;2.50;;;14.10;99.00;;;;;;5012396;28;20221;-62
2023/10/09 02:19:55;;;;;;;5.87;2.90;;;14.00;99.30;;;;;;5008060;28;20435;-62
2023/10/09 02:22:25;;;;;;;21.33;2.83;;;13.90;99.80;;;;;;5012756;28;20426;-62
2023/10/09 02:24:57;;;;;;;26.43;3.83;;;13.80;99.90;;;;;;5007714;28;20277;-62
2023/10/09 02:30:26;;;;;;;6.40;2.80;;;13.70;99.90;;;;;;5005085;28;20844;-61
2023/10/09 02:32:55;;;;;;;9.80;2.13;;;13.60;99.90;;;;;;5011144;28;21140;-62
2023/10/09 02:35:28;;;;;;;19.03;3.50;;;13.60;99.90;;;;;;5007691;28;20469;-62
2023/10/09 02:37:54;;;;;;;9.60;2.00;;;13.50;99.90;;;;;;5012372;28;20914;-62
2023/10/09 02:40:24;;;;;;;9.03;2.50;;;13.50;99.90;;;;;;5009844;28;20437;-62
2023/10/09 02:42:50;;;;;;;8.23;3.07;;;13.40;99.90;;;;;;5012387;28;20501;-62
2023/10/09 02:45:19;;;;;;;13.57;4.40;;;13.30;99.90;;;;;;5011296;28;20522;-62
2023/10/09 02:47:48;;;;;;;21.23;2.50;;;13.30;99.90;;;;;;5011810;28;20187;-61
2023/10/09 02:50:20;;;;;;;8.17;2.67;;;13.10;99.90;;;;;;5009626;28;20899;-62
2023/10/09 02:52:47;;;;;;;21.97;3.30;;;13.10;99.90;;;;;;5011180;28;20426;-62
2023/10/09 02:55:25;;;;;;;8.00;2.00;;;13.10;99.90;;;;;;5009321;28;20469;-62
2023/10/09 02:58:05;;;;;;;7.90;2.67;;;13.10;99.90;;;;;;5010930;28;20418;-62
2023/10/09 03:00:32;;;;;;;10.50;2.37;;;13.10;99.90;;;;;;5006195;28;20831;-62
2023/10/09 03:02:58;;;;;;;12.30;2.87;;;13.00;99.90;;;;;;5008856;28;20414;-62
2023/10/09 03:05:24;;;;;;;11.33;3.80;;;13.10;99.90;;;;;;5008150;28;20430;-62
2023/10/09 03:07:53;;;;;;;19.20;3.63;;;12.90;99.90;;;;;;5010957;28;20426;-62
2023/10/09 03:10:19;;;;;;;16.70;3.03;;;12.90;99.90;;;;;;5008325;28;20422;-62
2023/10/09 03:12:44;;;;;;;6.93;2.17;;;12.90;99.90;;;;;;5011104;28;20460;-62
2023/10/09 03:15:11;;;;;;;8.60;3.50;;;12.90;99.90;;;;;;5005207;28;20473;-62
2023/10/09 03:17:36;;;;;;;14.93;4.53;;;12.80;99.90;;;;;;5010789;28;20194;-62
2023/10/09 03:20:12;;;;;;;14.83;2.50;;;12.80;99.90;;;;;;5006459;28;20770;-61
2023/10/09 03:22:38;;;;;;;7.10;2.97;;;12.80;99.90;;;;;;5010960;28;20187;-61
2023/10/09 03:25:11;;;;;;;6.30;2.70;;;12.80;99.90;;;;;;5005804;28;20453;-62
2023/10/09 03:27:41;;;;;;;17.30;3.93;;;12.80;99.90;;;;;;5010850;28;20442;-62
2023/10/09 03:30:10;;;;;;;9.73;2.40;;;12.80;99.90;;;;;;5006142;28;20438;-62
2023/10/09 03:32:35;;;;;;;7.00;2.43;;;12.70;99.90;;;;;;5010804;28;20463;-62
2023/10/09 03:35:03;;;;;;;15.33;3.07;;;12.60;99.90;;;;;;5003846;28;20806;-61
2023/10/09 03:37:35;;;;;;;7.93;2.40;;;12.60;99.90;;;;;;5007635;28;20183;-62
2023/10/09 03:40:01;;;;;;;12.73;3.07;;;12.60;99.90;;;;;;5004127;28;20460;-61
2023/10/09 03:42:27;;;;;;;8.40;2.93;;;12.50;99.90;;;;;;5010603;28;20898;-62
2023/10/09 03:44:53;;;;;;;7.33;2.40;;;12.50;99.90;;;;;;5007499;28;20426;-61
2023/10/09 03:47:22;;;;;;;10.40;2.40;;;12.50;99.90;;;;;;5010652;28;20199;-62
2023/10/09 03:49:51;;;;;;;9.93;2.93;;;12.60;99.90;;;;;;5009066;28;20577;-62
2023/10/09 03:52:18;;;;;;;5.07;2.70;;;12.50;99.90;;;;;;5011210;28;20426;-62
2023/10/09 03:54:46;;;;;;;6.10;2.47;;;12.50;99.90;;;;;;5009017;28;20881;-62
2023/10/09 03:57:19;;;;;;;7.57;2.90;;;12.50;99.90;;;;;;5011201;28;20444;-62
2023/10/09 03:59:46;;;;;;;12.30;3.33;;;12.50;99.90;;;;;;5007516;28;20470;-62
2023/10/09 04:02:16;;;;;;;15.33;3.47;;;12.50;99.90;;;;;;5010947;28;20787;-62
2023/10/09 04:04:47;;;;;;;16.07;2.20;;;12.40;99.90;;;;;;5006742;28;20430;-61
2023/10/09 04:07:16;;;;;;;6.70;3.33;;;12.30;99.90;;;;;;5005537;28;20534;-62
2023/10/09 04:09:44;;;;;;;10.47;2.80;;;12.30;99.90;;;;;;5007979;28;20427;-62
2023/10/09 04:14:50;;;;;;;14.80;2.93;;;12.30;99.90;;;;;;5004012;28;20505;-62
2023/10/09 04:22:59;;;;;;;8.10;2.77;;;12.20;99.90;;;;;;4998616;28;20513;-62
2023/10/09 04:25:25;;;;;;;12.23;3.00;;;12.20;99.90;;;;;;5005573;28;20468;-62
2023/10/09 04:28:19;;;;;;;11.70;2.83;;;12.10;99.90;;;;;;5010243;28;20430;-62
2023/10/09 04:30:55;;;;;;;3.97;2.00;;;12.20;99.90;;;;;;5005808;28;20477;-61
2023/10/09 04:36:22;;;;;;;23.13;3.90;;;12.00;99.90;;;;;;5005400;28;20470;-62
2023/10/09 04:38:55;;;;;;;8.63;2.33;;;12.00;99.90;;;;;;5009457;28;20496;-62
2023/10/09 04:41:27;;;;;;;18.43;3.40;;;12.00;99.90;;;;;;5005778;28;20516;-62
2023/10/09 04:46:43;;;;;;;8.17;2.47;;;11.90;99.90;;;;;;5011278;28;20934;-62
2023/10/09 04:49:27;;;;;;;10.03;2.70;;;11.80;99.90;;;;;;5008566;28;20441;-62
2023/10/09 04:52:08;;;;;;;12.73;2.80;;;11.80;99.90;;;;;;5009866;28;20429;-62
2023/10/09 04:54:39;;;;;;;9.80;2.60;;;11.70;99.90;;;;;;5008242;28;20465;-62
2023/10/09 04:57:13;;;;;;;10.53;2.97;;;11.80;99.90;;;;;;5010288;28;20479;-62
2023/10/09 04:59:47;;;;;;;14.27;3.57;;;11.80;99.90;;;;;;5008259;28;20476;-62
2023/10/09 05:02:19;;;;;;;11.00;3.27;;;11.70;99.90;;;;;;5004153;28;20448;-62
2023/10/09 05:04:51;;;;;;;8.93;2.87;;;11.70;99.90;;;;;;5006053;28;20434;-62
2023/10/09 05:07:23;;;;;;;19.77;3.87;;;11.70;99.90;;;;;;5010347;28;20410;-62
2023/10/09 05:09:55;;;;;;;10.20;2.90;;;11.70;99.90;;;;;;5007237;28;20426;-62
2023/10/09 05:12:26;;;;;;;14.43;3.93;;;11.80;99.90;;;;;;5010312;28;20433;-62
2023/10/09 05:15:08;;;;;;;19.83;3.07;;;11.80;99.90;;;;;;5005618;28;20818;-62
2023/10/09 05:17:35;;;;;;;7.63;3.23;;;11.80;99.90;;;;;;5010025;28;20468;-62
2023/10/09 05:22:57;;;;;;;17.40;3.40;;;11.90;99.90;;;;;;5010604;28;20421;-62
2023/10/09 05:31:06;;;;;;;21.63;3.60;;;11.90;99.90;;;;;;5009016;28;20463;-62
2023/10/09 05:33:33;;;;;;;10.50;3.10;;;11.90;99.90;;;;;;5013670;28;20471;-62
2023/10/09 05:38:58;;;;;;;17.17;3.70;;;11.90;99.90;;;;;;5013033;28;20409;-62
2023/10/09 05:49:46;;;;;;;23.10;3.80;;;12.00;99.90;;;;;;5011448;28;20472;-62
2023/10/09 05:52:32;;;;;;;31.17;4.47;;;12.00;99.90;;;;;;5007458;28;20461;-62
2023/10/09 06:14:04;;;;;;;20.63;2.70;;;12.20;99.90;;;;;;5011290;28;20468;-62
2023/10/09 06:19:08;;;;;;;13.80;3.43;;;12.40;99.90;;;;;;5010822;28;20433;-62
2023/10/09 06:24:17;;;;;;;10.10;2.37;;;12.50;99.90;;;;;;5011458;28;20427;-62
2023/10/09 06:29:50;;;;;;;21.83;3.70;;;12.50;99.90;;;;;;5009327;28;20438;-62
2023/10/09 06:34:51;;;;;;;13.37;3.50;;;12.70;99.90;;;;;;5007974;28;20921;-62
2023/10/09 06:45:18;;;;;;;8.43;2.10;;;13.00;99.90;;;;;;5011720;28;21033;-62
2023/10/09 06:48:07;;;;;;;18.90;3.30;;;13.10;99.90;;;;;;5012287;28;20462;-62
2023/10/09 06:53:20;;;;;;;6.57;2.60;;;13.20;99.90;;;;;;5007409;28;20479;-62
2023/10/09 06:55:48;;;;;;;8.03;2.80;;;13.20;99.90;;;;;;5010058;28;20556;-62
2023/10/09 06:58:23;;;;;;;12.33;3.37;;;13.30;99.90;;;;;;5005874;28;20771;-62
2023/10/09 07:03:32;;;;;;;10.93;3.53;;;13.50;99.90;;;;;;5011977;28;20431;-62
2023/10/09 07:24:58;;;;;;;;;;;;;;;;;;;;;
2023/10/09 07:38:19;;;;;;;13.90;4.03;;;15.10;99.90;;;;;;5011517;28;20418;-62
2023/10/09 07:46:51;;;;;;;17.13;3.83;;;15.70;98.30;;;;;;5003682;28;20445;-62
2023/10/09 07:49:29;;;;;;;12.43;2.60;;;15.90;98.00;;;;;;5006378;28;21174;-62
2023/10/09 07:51:55;;;;;;;5.60;1.73;;;16.10;97.30;;;;;;5009808;28;20440;-62
2023/10/09 07:54:33;;;;;;;11.50;1.87;;;16.20;97.90;;;;;;5008100;28;20430;-62
2023/10/09 07:57:08;;;;;;;10.43;2.97;;;16.00;98.40;;;;;;5009641;28;20424;-62
2023/10/09 07:59:41;;;;;;;5.87;2.23;;;16.00;98.30;;;;;;5007312;28;20460;-62
2023/10/09 08:02:13;;;;;;;9.57;2.40;;;16.00;98.20;;;;;;5008859;28;20961;-62
2023/10/09 08:04:47;;;;;;;18.70;3.00;;;16.10;97.70;;;;;;5005264;28;20775;-62
2023/10/09 08:07:25;;;;;;;24.70;2.70;;;16.10;98.00;;;;;;5004278;28;20409;-62
2023/10/09 08:13:49;;;;;;;9.77;2.13;;;16.40;97.20;;;;;;5009348;28;20429;-62
2023/10/09 08:15:51;;;;;;;17.03;3.60;;;16.60;96.90;;;;;;5001237;28;20474;-62
2023/10/09 08:18:27;;;;;;;7.00;2.93;;;16.60;97.00;;;;;;5003291;28;20441;-62
2023/10/09 08:23:28;;;;;;;22.33;3.20;;;16.80;96.30;;;;;;5009701;28;20907;-62
2023/10/09 08:26:13;;;;;;;10.07;2.23;;;16.80;97.00;;;;;;5003978;28;20441;-62
2023/10/09 08:28:43;;;;;;;8.90;2.37;;;16.90;96.50;;;;;;5007870;28;20426;-62
2023/10/09 08:31:19;;;;;;;8.30;2.80;;;17.00;96.80;;;;;;5004434;28;20460;-62
2023/10/09 08:33:58;;;;;;;14.37;3.03;;;17.10;96.60;;;;;;5008767;28;20465;-62
2023/10/09 08:36:36;;;;;;;10.40;1.97;;;17.20;96.80;;;;;;5005736;28;20489;-62
2023/10/09 08:39:15;;;;;;;8.63;2.23;;;17.30;96.30;;;;;;5001101;28;20419;-62
2023/10/09 08:41:40;;;;;;;13.13;2.50;;;17.30;97.20;;;;;;5006924;28;20414;-62
2023/10/09 08:44:07;;;;;;;12.27;2.57;;;17.50;96.50;;;;;;5007410;28;20480;-62
2023/10/09 08:46:33;;;;;;;11.97;2.90;;;17.50;96.60;;;;;;5009302;28;20249;-62
2023/10/09 08:48:59;;;;;;;12.13;2.33;;;17.60;96.40;;;;;;5007240;28;20576;-62
2023/10/09 08:51:26;;;;;;;6.40;2.20;;;17.70;96.00;;;;;;5009035;28;20421;-62
2023/10/09 08:53:52;;;;;;;12.90;2.53;;;17.70;96.00;;;;;;5007332;28;20444;-62
2023/10/09 08:56:23;;;;;;;10.33;2.60;;;17.90;95.70;;;;;;5008580;28;20565;-62
2023/10/09 08:58:53;;;;;;;17.27;2.80;;;17.80;95.60;;;;;;5007624;28;20448;-62
2023/10/09 09:01:21;;;;;;;10.80;2.10;;;17.90;96.10;;;;;;5010736;28;20479;-62
2023/10/09 09:03:48;;;;;;;10.17;2.43;;;18.00;95.80;;;;;;5014980;28;20429;-62
2023/10/09 09:06:14;;;;;;;7.00;2.40;;;18.20;95.50;;;;;;5013082;28;20422;-62
2023/10/09 09:08:40;;;;;;;22.27;2.83;;;18.20;95.60;;;;;;5015274;28;20744;-62
2023/10/09 09:11:11;;;;;;;24.37;3.00;;;18.20;96.30;;;;;;5013129;28;20426;-62
2023/10/09 09:14:18;;;;;;;14.33;1.63;;;18.20;95.20;;;;;;5015203;28;21041;-62
2023/10/09 09:16:48;;;;;;;5.63;1.83;;;18.30;95.60;;;;;;5012399;28;20445;-62
2023/10/09 09:19:17;;;;;;;22.03;3.00;;;18.30;95.80;;;;;;5013350;28;20846;-62
2023/10/09 09:21:54;;;;;;;8.23;2.70;;;18.50;95.00;;;;;;5013078;28;20429;-62
2023/10/09 09:27:20;;;;;;;6.43;2.37;;;18.60;95.60;;;;;;5013149;28;20453;-62
2023/10/09 09:29:52;;;;;;;19.30;2.93;;;18.60;96.20;;;;;;5009957;28;20430;-63
2023/10/09 09:32:35;;;;;;;22.57;3.80;;;18.80;95.50;;;;;;5015082;28;20447;-62
2023/10/09 09:35:04;;;;;;;10.80;3.30;;;18.80;95.50;;;;;;5008048;28;20835;-63
2023/10/09 09:37:52;;;;;;;10.23;2.10;;;18.90;95.20;;;;;;5014794;28;20418;-63
2023/10/09 09:40:30;;;;;;;6.87;2.33;;;19.00;94.80;;;;;;5006811;28;20512;-63
2023/10/09 09:43:04;;;;;;;9.47;2.73;;;19.20;94.80;;;;;;5014381;28;20418;-63
2023/10/09 09:45:34;;;;;;;13.53;2.27;;;19.10;94.80;;;;;;5014161;28;20444;-63
2023/10/09 09:48:05;;;;;;;11.40;2.07;;;19.20;95.20;;;;;;5012672;28;20508;-63
2023/10/09 09:50:32;;;;;;;5.83;2.30;;;19.40;95.00;;;;;;5013172;28;20433;-63
2023/10/09 09:52:59;;;;;;;19.10;2.00;;;19.50;95.70;;;;;;5014873;28;20476;-63
2023/10/09 09:55:30;;;;;;;13.73;3.90;;;19.60;95.70;;;;;;5012894;28;20540;-63
2023/10/09 09:57:57;;;;;;;17.87;2.97;;;19.80;95.60;;;;;;5014551;28;20617;-63
2023/10/09 10:03:12;;;;;;;8.00;1.77;;;19.90;94.70;;;;;;5014143;28;20429;-63
2023/10/09 10:05:40;;;;;;;8.97;3.30;;;20.20;94.40;;;;;;5011680;28;20437;-63
2023/10/09 10:08:12;;;;;;;8.20;2.80;;;20.50;94.40;;;;;;5014696;28;20487;-63
2023/10/09 10:10:47;;;;;;;12.13;2.40;;;20.60;93.90;;;;;;5011839;28;20445;-63
2023/10/09 10:13:21;;;;;;;19.53;2.33;;;20.70;93.50;;;;;;5004497;28;20410;-63
2023/10/09 10:16:02;;;;;;;29.17;3.10;;;21.00;93.60;;;;;;5006086;28;20477;-63
2023/10/09 10:18:59;;;;;;;15.97;2.97;;;21.00;94.10;;;;;;5011171;28;20441;-63
2023/10/09 10:24:10;;;;;;;13.33;2.27;;;21.40;94.10;;;;;;5010036;28;20414;-63
2023/10/09 10:26:35;;;;;;;14.10;3.00;;;21.70;93.20;;;;;;5007781;28;20497;-63
2023/10/09 10:29:22;;;;;;;14.60;4.13;;;21.90;93.00;;;;;;5009154;28;20435;-63
2023/10/09 10:32:01;;;;;;;9.50;2.33;;;22.20;92.90;;;;;;5008733;28;20179;-62
2023/10/09 10:34:49;;;;;;;29.50;2.90;;;22.50;92.40;;;;;;5010426;28;20472;-62
2023/10/09 10:37:15;;;;;;;17.30;2.50;;;22.70;91.70;;;;;;5009667;28;20479;-62
2023/10/09 10:39:51;;;;;;;22.37;2.70;;;22.90;91.30;;;;;;5008723;28;20426;-62
2023/10/09 10:42:35;;;;;;;31.07;3.00;;;22.80;92.60;;;;;;5005032;28;20300;-62
2023/10/09 10:45:34;;;;;;;15.30;2.53;;;23.00;91.80;;;;;;5009258;28;20532;-62
2023/10/09 10:47:58;;;;;;;22.07;4.43;;;23.10;93.10;;;;;;5010434;28;20433;-62
2023/10/09 10:53:17;;;;;;;16.90;3.33;;;23.00;87.70;;;;;;5011153;28;20433;-63
2023/10/09 10:56:17;;;;;;;11.90;2.90;;;22.90;86.90;;;;;;5008808;28;20485;-62
2023/10/09 11:01:53;;;;;;;26.40;3.70;;;23.10;85.20;;;;;;5006535;28;20882;-62
2023/10/09 11:07:24;;;;;;;20.33;4.03;;;22.90;85.30;;;;;;5010860;28;20523;-62
2023/10/09 11:12:42;;;;;;;13.77;2.80;;;23.00;83.60;;;;;;5010716;28;20504;-62
2023/10/09 11:18:27;;;;;;;23.87;4.27;;;22.90;86.10;;;;;;5008159;28;20452;-63
2023/10/09 11:26:21;;;;;;;10.70;4.37;;;23.20;86.80;;;;;;4996642;28;20409;-63
2023/10/09 11:29:12;;;;;;;12.73;2.93;;;23.30;84.30;;;;;;5009515;28;20414;-62
2023/10/09 11:31:39;;;;;;;14.33;3.40;;;23.50;85.00;;;;;;5006810;28;20413;-62
2023/10/09 11:34:28;;;;;;;10.43;3.17;;;23.70;84.40;;;;;;5008545;28;20520;-62
2023/10/09 11:36:55;;;;;;;9.90;2.90;;;23.50;83.90;;;;;;5009018;28;20413;-61
2023/10/09 11:39:31;;;;;;;31.23;4.67;;;23.50;83.70;;;;;;5008452;28;20520;-62
2023/10/09 11:42:07;;;;;;;32.20;4.63;;;23.30;86.20;;;;;;5009429;28;20983;-62
2023/10/09 11:44:47;;;;;;;24.50;3.93;;;23.10;85.60;;;;;;5006481;28;21175;-62
2023/10/09 11:52:45;;;;;;;28.70;3.60;;;22.80;84.10;;;;;;5010465;28;20410;-62
2023/10/09 11:55:14;;;;;;;11.67;2.90;;;22.70;85.10;;;;;;5001215;28;20485;-62
2023/10/09 11:57:41;;;;;;;29.93;3.97;;;22.80;84.80;;;;;;5009467;28;20811;-62
2023/10/09 12:00:29;;;;;;;20.60;4.43;;;22.60;85.10;;;;;;5008147;28;20433;-62
2023/10/09 12:02:55;;;;;;;16.43;3.50;;;22.60;84.30;;;;;;5009278;28;20413;-62
2023/10/09 12:05:22;;;;;;;15.93;3.60;;;22.40;87.20;;;;;;5004337;28;20429;-62
2023/10/09 12:07:57;;;;;;;18.63;3.77;;;22.20;87.90;;;;;;5009679;28;20922;-62
2023/10/09 12:10:26;;;;;;;18.40;4.03;;;22.10;87.50;;;;;;5006877;28;20429;-61
2023/10/09 12:12:52;;;;;;;32.17;3.63;;;22.00;89.00;;;;;;5009635;28;20431;-62
2023/10/09 12:15:19;;;;;;;16.43;3.77;;;21.90;89.30;;;;;;5004212;28;20458;-62
2023/10/09 12:17:46;;;;;;;16.90;2.77;;;21.80;90.00;;;;;;5009292;28;20520;-62
2023/10/09 12:20:22;;;;;;;13.93;3.13;;;21.80;91.30;;;;;;5003857;28;20418;-62
2023/10/09 12:22:47;;;;;;;28.83;3.37;;;21.70;91.10;;;;;;5009575;28;20425;-62
2023/10/09 12:25:14;;;;;;;12.33;3.70;;;21.70;91.30;;;;;;5003868;28;20945;-62
2023/10/09 12:27:39;;;;;;;19.50;2.93;;;21.80;92.40;;;;;;5009239;28;20273;-62
2023/10/09 12:30:06;;;;;;;30.63;3.57;;;21.80;92.20;;;;;;5004110;28;20476;-61
2023/10/09 12:32:36;;;;;;;17.43;2.73;;;22.00;92.10;;;;;;5008807;28;20193;-61
2023/10/09 12:35:01;;;;;;;10.97;2.73;;;22.10;91.60;;;;;;5000114;28;20473;-61
2023/10/09 12:37:27;;;;;;;13.30;3.33;;;22.20;91.50;;;;;;5009373;28;20758;-62
2023/10/09 12:39:56;;;;;;;11.57;2.97;;;22.10;91.20;;;;;;5005249;28;20805;-62
2023/10/09 12:42:21;;;;;;;23.40;4.07;;;22.30;91.30;;;;;;5008806;28;20297;-62
2023/10/09 12:44:48;;;;;;;45.80;4.83;;;22.60;91.10;;;;;;5006117;28;20450;-62
2023/10/09 12:47:14;;;;;;;20.47;4.00;;;22.80;90.80;;;;;;5008611;28;20182;-62
2023/10/09 12:49:40;;;;;;;15.17;3.13;;;23.00;90.50;;;;;;5006514;28;20436;-62
2023/10/09 12:52:16;;;;;;;22.90;4.40;;;23.00;90.20;;;;;;5009165;28;20178;-62
2023/10/09 12:54:43;;;;;;;16.30;2.63;;;23.20;88.20;;;;;;5006870;28;20967;-62
2023/10/09 12:57:13;;;;;;;23.60;4.30;;;23.30;86.30;;;;;;5008917;28;20414;-62
2023/10/09 12:59:44;;;;;;;10.77;3.53;;;23.50;86.10;;;;;;5006699;28;20513;-62
2023/10/09 13:02:28;;;;;;;9.60;2.80;;;23.80;85.10;;;;;;5002304;28;20858;-62
2023/10/09 13:04:55;;;;;;;16.63;3.63;;;24.00;84.10;;;;;;5004351;28;20433;-62
2023/10/09 13:07:22;;;;;;;17.73;3.63;;;24.40;83.10;;;;;;5008970;28;20540;-62
2023/10/09 13:10:08;;;;;;;25.93;4.67;;;24.50;80.40;;;;;;5005620;28;20422;-62
2023/10/09 13:12:38;;;;;;;30.33;3.67;;;24.50;80.20;;;;;;5008688;28;20532;-63
2023/10/09 13:15:08;;;;;;;16.33;3.70;;;24.60;80.70;;;;;;4996533;28;20858;-62
2023/10/09 13:17:35;;;;;;;11.90;3.57;;;24.50;78.60;;;;;;5008641;28;20433;-62
2023/10/09 13:20:03;;;;;;;9.27;2.90;;;24.10;75.90;;;;;;5003310;28;20429;-62
2023/10/09 13:22:30;;;;;;;17.07;3.83;;;24.10;74.00;;;;;;5008766;28;20452;-62
2023/10/09 13:25:03;;;;;;;14.90;3.30;;;24.00;74.60;;;;;;5005165;28;20436;-62
2023/10/09 13:27:34;;;;;;;10.80;3.03;;;24.00;75.40;;;;;;5008329;28;20425;-62
2023/10/09 13:30:05;;;;;;;8.20;3.00;;;24.10;73.30;;;;;;5003333;28;20436;-62
2023/10/09 13:32:35;;;;;;;14.93;3.43;;;24.20;72.90;;;;;;5008405;28;20564;-62
2023/10/09 13:35:03;;;;;;;17.40;3.83;;;24.20;72.50;;;;;;5002708;28;20507;-62
2023/10/09 13:37:30;;;;;;;35.73;4.13;;;24.20;73.00;;;;;;5008767;28;20430;-62
2023/10/09 13:39:57;;;;;;;33.00;4.10;;;24.00;71.80;;;;;;5005861;28;20547;-62
2023/10/09 13:42:25;;;;;;;23.93;2.83;;;23.90;73.20;;;;;;5008228;28;20422;-62
2023/10/09 13:44:53;;;;;;;13.33;3.53;;;23.80;73.20;;;;;;5008298;28;20432;-62
2023/10/09 13:47:20;;;;;;;6.87;3.37;;;23.60;73.10;;;;;;5010568;28;20421;-62
2023/10/09 13:49:50;;;;;;;14.97;2.73;;;23.60;72.30;;;;;;5010137;28;20429;-62
2023/10/09 13:52:19;;;;;;;14.30;4.33;;;23.70;70.70;;;;;;5012303;28;20425;-62
2023/10/09 13:54:49;;;;;;;9.03;2.70;;;23.60;72.50;;;;;;5010009;28;20473;-62
2023/10/09 13:57:15;;;;;;;10.53;3.90;;;23.70;71.60;;;;;;5012009;28;20422;-62
2023/10/09 13:59:51;;;;;;;18.77;3.60;;;23.70;72.20;;;;;;5006271;28;20430;-62
2023/10/09 14:02:17;;;;;;;5.80;3.00;;;23.60;70.90;;;;;;5006329;28;20232;-62
2023/10/09 14:04:43;;;;;;;25.30;2.97;;;23.60;70.00;;;;;;5008808;28;20425;-62
2023/10/09 14:07:09;;;;;;;5.97;2.90;;;23.70;71.60;;;;;;5009683;28;20425;-62
2023/10/09 14:09:38;;;;;;;7.70;3.13;;;23.80;72.40;;;;;;5007734;28;20742;-62
2023/10/09 14:12:06;;;;;;;10.80;3.37;;;23.80;72.80;;;;;;5006534;28;20421;-60
2023/10/09 14:14:47;;;;;;;10.33;2.93;;;24.00;68.80;;;;;;5006416;28;20437;-61
2023/10/09 14:17:23;;;;;;;14.20;3.00;;;24.10;69.00;;;;;;5008496;28;20448;-61
2023/10/09 14:19:50;;;;;;;17.97;3.60;;;24.20;68.10;;;;;;5006505;28;20516;-61
2023/10/09 14:22:18;;;;;;;13.77;3.27;;;24.50;65.30;;;;;;5011358;28;20472;-61
2023/10/09 14:24:55;;;;;;;12.43;3.00;;;24.50;66.70;;;;;;5009486;28;20468;-61
2023/10/09 14:27:23;;;;;;;14.07;3.97;;;24.60;67.60;;;;;;5004898;28;20417;-61
2023/10/09 14:29:49;;;;;;;8.37;3.50;;;24.60;66.90;;;;;;5005571;28;20441;-61
2023/10/09 14:32:16;;;;;;;6.50;3.10;;;24.70;65.90;;;;;;5011262;28;20421;-61
2023/10/09 14:34:46;;;;;;;11.73;3.87;;;24.60;65.50;;;;;;5005487;28;20458;-61
2023/10/09 14:37:14;;;;;;;9.23;3.60;;;24.60;66.10;;;;;;5004831;28;20915;-61
2023/10/09 14:39:48;;;;;;;17.67;3.50;;;24.60;66.30;;;;;;5008079;28;20437;-61
2023/10/09 14:42:15;;;;;;;7.40;2.97;;;24.40;67.50;;;;;;5005016;28;20428;-61
2023/10/09 14:44:40;;;;;;;16.77;3.50;;;24.40;68.50;;;;;;5007729;28;20425;-61
2023/10/09 14:47:07;;;;;;;11.07;3.27;;;24.40;66.30;;;;;;5019102;28;20460;-61
2023/10/09 14:50:01;;;;;;;13.47;2.80;;;24.40;68.60;;;;;;5013356;28;20636;-61
2023/10/09 14:52:20;;;;;;;5.67;2.50;;;24.10;67.90;;;;;;5022276;28;20794;-61
2023/10/09 14:54:46;;;;;;;11.20;3.60;;;24.00;68.00;;;;;;5008432;28;20473;-61
2023/10/09 14:57:13;;;;;;;10.73;3.20;;;24.00;68.50;;;;;;5010485;28;20436;-61
2023/10/09 14:59:39;;;;;;;14.77;3.33;;;23.80;69.30;;;;;;5009904;28;20557;-61
2023/10/09 15:02:05;;;;;;;24.87;4.37;;;23.70;70.50;;;;;;5015308;28;20488;-61
2023/10/09 15:04:35;;;;;;;21.77;3.30;;;23.70;70.20;;;;;;5015051;28;20982;-61
2023/10/09 15:07:01;;;;;;;18.10;4.73;;;23.60;71.10;;;;;;5018762;28;20187;-61
2023/10/09 15:09:31;;;;;;;13.93;3.67;;;23.70;70.20;;;;;;5013575;28;20444;-61
2023/10/09 15:11:57;;;;;;;12.23;3.70;;;23.80;69.60;;;;;;5014198;28;20289;-61
2023/10/09 15:14:23;;;;;;;9.13;2.00;;;23.80;69.30;;;;;;5011745;28;20426;-61
2023/10/09 15:16:49;;;;;;;30.77;4.33;;;24.00;69.70;;;;;;5012072;28;21102;-61
2023/10/09 15:19:16;;;;;;;21.13;3.77;;;23.90;70.10;;;;;;5017545;28;20189;-61
2023/10/09 15:21:45;;;;;;;9.33;3.30;;;23.70;72.00;;;;;;5012680;28;20919;-61
2023/10/09 15:24:15;;;;;;;18.67;4.20;;;23.70;70.40;;;;;;5006695;28;20436;-61
2023/10/09 15:26:51;;;;;;;25.20;4.77;;;23.50;72.00;;;;;;5006134;28;20894;-61
2023/10/09 15:29:19;;;;;;;21.77;4.13;;;23.40;72.30;;;;;;5006041;28;20452;-61
2023/10/09 15:31:46;;;;;;;25.87;4.63;;;23.30;71.90;;;;;;5007127;28;20436;-61
2023/10/09 15:34:12;;;;;;;22.07;3.10;;;23.20;73.40;;;;;;5008182;28;20423;-61
2023/10/09 15:36:39;;;;;;;19.10;4.47;;;23.10;73.90;;;;;;5007984;28;20548;-61
2023/10/09 15:39:08;;;;;;;13.93;3.53;;;23.00;75.30;;;;;;5011126;28;20178;-61
2023/10/09 15:41:34;;;;;;;26.27;4.00;;;22.90;74.80;;;;;;5009418;28;20440;-62
2023/10/09 15:44:01;;;;;;;28.53;4.60;;;22.80;75.50;;;;;;5009381;28;20515;-62